Kay A. Eckstein — WDB9183 — position and weather

sailwx.info

Track history (hours):
 
Tides and Currents Weather Stations Pressure Air Temp Water Temp Dewpoint Dewpoint Depression Visibility Wind Speed Wind Dir Waves Ship Positions

Kay A. Eckstein

More information available from US FCC via Universal Licensing System and Coast Guard Vessel Documentation Center.

Last reported at 2014-Aug-11 09:24 UTC. Time now 2014-Aug-23 03:39 UTC.
Position N 30°15' W 091°07'.
Warning: this ship's position is 11 days out of date.

Length 34 m; draft 3.4 m.

MMSI: 366971460.

Date/timePositionNaut miles runAvg speedWind from/ knotsBaromVisibWave heightAir tempDewpointWater temp
2014-Aug-11 09:24N 30°15' W 091°07'4 4.9
2014-Aug-11 08:32N 30°11' W 091°09'6 5.8
2014-Aug-11 07:29N 30°12' W 091°02'5 5.1
2014-Aug-11 06:32N 30°07' W 091°02'4 4.5
2014-Aug-11 05:33N 30°08' W 090°57'7 5.1
2014-Aug-11 04:14N 30°04' W 090°51'4 6.6
2014-Aug-11 03:33N 29°59' W 090°50'10 1.4
2014-Aug-10 20:04N 30°03' W 090°38'0 0.0
2014-Aug-10 10:30N 30°03' W 090°38'0 0.0
2014-Aug-10 09:31N 30°03' W 090°38'0 0.0
2014-Aug-10 07:32N 30°03' W 090°38'0 0.0
2014-Aug-10 06:34N 30°03' W 090°38'3 0.1
2014-Aug-08 12:23N 30°03' W 090°34'0 0.0
2014-Aug-08 07:27N 30°03' W 090°34'3 1.8
2014-Aug-08 05:33N 30°03' W 090°38'9 7.8
2014-Aug-08 04:23N 29°60' W 090°48'1 1.4
2014-Aug-08 03:32N 29°59' W 090°49'7 6.8
2014-Aug-08 02:30N 30°04' W 090°54'  
Track history (hours):
 
Tides and Currents Weather Stations Pressure Air Temp Water Temp Dewpoint Dewpoint Depression Visibility Wind Speed Wind Dir Waves Ship Positions

Kay A. Eckstein

More information available from US FCC via Universal Licensing System and Coast Guard Vessel Documentation Center.

Last reported at 2014-Aug-11 09:24 UTC. Time now 2014-Aug-23 03:39 UTC.
Position N 30°15' W 091°07'.
Warning: this ship's position is 11 days out of date.

Length 34 m; draft 3.4 m.

MMSI: 366971460.

Date/timePositionNaut miles runAvg speedWind from/ knotsBaromVisibWave heightAir tempDewpointWater temp
2014-Aug-11 09:24N 30°15' W 091°07'4 4.9
2014-Aug-11 08:32N 30°11' W 091°09'6 5.8
2014-Aug-11 07:29N 30°12' W 091°02'5 5.1
2014-Aug-11 06:32N 30°07' W 091°02'4 4.5
2014-Aug-11 05:33N 30°08' W 090°57'7 5.1
2014-Aug-11 04:14N 30°04' W 090°51'4 6.6
2014-Aug-11 03:33N 29°59' W 090°50'10 1.4
2014-Aug-10 20:04N 30°03' W 090°38'0 0.0
2014-Aug-10 10:30N 30°03' W 090°38'0 0.0
2014-Aug-10 09:31N 30°03' W 090°38'0 0.0
2014-Aug-10 07:32N 30°03' W 090°38'0 0.0
2014-Aug-10 06:34N 30°03' W 090°38'3 0.1
2014-Aug-08 12:23N 30°03' W 090°34'0 0.0
2014-Aug-08 07:27N 30°03' W 090°34'3 1.8
2014-Aug-08 05:33N 30°03' W 090°38'9 7.8
2014-Aug-08 04:23N 29°60' W 090°48'1 1.4
2014-Aug-08 03:32N 29°59' W 090°49'7 6.8
2014-Aug-08 02:30N 30°04' W 090°54'  

Dump ship's entire track history